Time;durP1;ratioP1;P1;durP2;ratioP2;P2;SDS_P1;SDS_P2;PMS_P1;PMS_P2;Temp;Humidity;BMP_temperature;BMP_pressure;BME280_temperature;BME280_humidity;BME280_pressure;Samples;Min_cycle;Max_cycle;Signal;HPM_P1;HPM_P2
2021/08/09 00:02:08;;;;;;;6.73;2.93;;;;;;;18.57;67.26;100462.28;128613;1095;22347;-77
2021/08/09 00:04:39;;;;;;;3.83;2.07;;;;;;;18.57;67.11;100462.28;128378;1095;24795;-77
2021/08/09 00:07:10;;;;;;;5.70;2.93;;;;;;;18.58;67.09;100461.23;128662;1095;22363;-77
2021/08/09 00:09:39;;;;;;;8.80;3.53;;;;;;;18.60;66.95;100463.71;128587;1095;22389;-79
2021/08/09 00:12:09;;;;;;;7.53;2.33;;;;;;;18.60;66.67;100456.50;128638;1093;24174;-79
2021/08/09 00:14:39;;;;;;;3.48;2.35;;;;;;;18.62;66.19;100461.62;128603;1095;24513;-79
2021/08/09 00:17:11;;;;;;;4.55;2.33;;;;;;;18.62;66.44;100459.76;128401;1095;22394;-77
2021/08/09 00:19:40;;;;;;;6.33;2.65;;;;;;;18.64;66.45;100465.72;128609;1095;22354;-80
2021/08/09 00:22:11;;;;;;;3.15;2.30;;;;;;;18.66;66.20;100474.36;128283;1095;22347;-78
2021/08/09 00:24:41;;;;;;;8.55;2.45;;;;;;;18.68;66.25;100472.27;128618;1095;22611;-78
2021/08/09 00:27:10;;;;;;;4.78;2.25;;;;;;;18.70;66.21;100475.55;128581;1095;22345;-78
2021/08/09 00:29:40;;;;;;;5.68;2.68;;;;;;;18.71;66.17;100466.48;128584;1095;23123;-77
2021/08/09 00:32:10;;;;;;;3.93;2.28;;;;;;;18.72;66.12;100472.68;128255;1095;22347;-79
2021/08/09 00:34:40;;;;;;;6.20;2.90;;;;;;;18.73;65.91;100469.80;128332;1095;24489;-77
2021/08/09 00:37:10;;;;;;;5.13;2.58;;;;;;;18.72;65.90;100462.80;128383;1095;22357;-78
2021/08/09 00:39:40;;;;;;;4.18;2.53;;;;;;;18.72;65.92;100468.14;128468;1095;22350;-78
2021/08/09 00:42:10;;;;;;;3.38;2.30;;;;;;;18.71;65.64;100471.02;128237;1095;22341;-78
2021/08/09 00:44:43;;;;;;;3.70;2.38;;;;;;;18.68;65.48;100460.75;128608;1093;23867;-78
2021/08/09 00:47:15;;;;;;;4.15;2.28;;;;;;;18.64;65.89;100463.05;128307;1095;22781;-78
2021/08/09 00:49:45;;;;;;;6.28;2.15;;;;;;;18.61;65.79;100474.18;128641;1095;22674;-78
2021/08/09 00:52:17;;;;;;;3.98;1.90;;;;;;;18.58;65.76;100471.94;128358;1095;22462;-78
2021/08/09 00:54:47;;;;;;;;;;;;;;;18.49;65.45;100475.91;128324;1095;24499;-79
2021/08/09 00:57:19;;;;;;;4.25;1.95;;;;;;;18.44;66.06;100481.10;128761;1095;21263;-78
2021/08/09 00:59:50;;;;;;;2.53;1.73;;;;;;;18.45;65.96;100480.05;128665;1095;22343;-78
2021/08/09 01:02:20;;;;;;;3.33;1.43;;;;;;;18.46;65.96;100489.71;128353;1095;22363;-78
2021/08/09 01:04:50;;;;;;;5.48;2.20;;;;;;;18.47;65.63;100496.72;128537;1095;23255;-79
2021/08/09 01:07:22;;;;;;;3.38;1.73;;;;;;;18.47;65.52;100486.84;128192;1098;24535;-78
2021/08/09 01:10:02;;;;;;;6.53;1.90;;;;;;;18.47;65.76;100486.84;128217;1098;22353;-77
2021/08/09 01:13:06;;;;;;;2.00;1.50;;;;;;;18.47;65.64;100492.19;128292;1096;22375;-77
2021/08/09 01:15:43;;;;;;;2.53;1.15;;;;;;;18.45;65.36;100499.59;128223;1098;22508;-78
2021/08/09 01:18:16;;;;;;;2.88;1.60;;;;;;;18.44;65.15;100494.48;128211;1098;22362;-78
2021/08/09 01:20:53;;;;;;;3.88;1.23;;;;;;;18.42;64.82;100499.21;128189;1098;22458;-79
2021/08/09 01:24:06;;;;;;;3.68;1.78;;;;;;;18.40;64.85;100507.46;128154;1098;22354;-78
2021/08/09 01:27:24;;;;;;;5.98;1.60;;;;;;;18.35;64.95;100507.27;128126;1098;22406;-78
2021/08/09 01:30:01;;;;;;;2.75;1.35;;;;;;;18.30;64.88;100507.11;128194;1098;22363;-79
2021/08/09 01:32:38;;;;;;;3.48;1.20;;;;;;;18.26;64.82;100500.53;128029;1098;22367;-78
2021/08/09 01:35:09;;;;;;;3.33;1.15;;;;;;;18.24;64.56;100506.11;127999;1098;25123;-78
2021/08/09 01:37:46;;;;;;;3.08;1.33;;;;;;;18.23;64.79;100517.03;128051;1098;22358;-78
2021/08/09 01:40:17;;;;;;;2.98;1.60;;;;;;;18.20;64.90;100515.59;128025;1098;22377;-79
2021/08/09 01:42:48;;;;;;;4.15;1.50;;;;;;;18.19;64.36;100516.61;128262;1098;22398;-78
2021/08/09 01:45:21;;;;;;;2.65;1.70;;;;;;;18.18;64.72;100527.53;128206;1098;22386;-79
2021/08/09 01:47:55;;;;;;;;;;;;;;;18.10;64.41;100518.73;128048;1098;22385;-77
2021/08/09 01:50:25;;;;;;;3.08;1.30;;;;;;;18.06;64.28;100530.05;127987;1098;21266;-78
2021/08/09 01:52:57;;;;;;;3.87;1.27;;;;;;;18.06;64.80;100522.87;128057;1098;22375;-78
2021/08/09 01:55:27;;;;;;;4.10;1.40;;;;;;;18.07;64.68;100526.36;128033;1098;22366;-78
2021/08/09 01:58:00;;;;;;;2.20;1.30;;;;;;;18.08;65.02;100520.78;128196;1098;22379;-78
2021/08/09 02:00:32;;;;;;;2.78;1.25;;;;;;;18.07;64.72;100524.50;128007;1098;22358;-79
2021/08/09 02:03:03;;;;;;;2.43;1.18;;;;;;;18.07;64.79;100537.05;128137;1095;22350;-79
2021/08/09 02:05:33;;;;;;;2.37;1.37;;;;;;;18.07;64.98;100545.06;128345;1095;22375;-78
2021/08/09 02:08:15;;;;;;;9.83;1.80;;;;;;;18.08;64.99;100546.70;128278;1095;22394;-78
2021/08/09 02:10:56;;;;;;;2.25;1.20;;;;;;;18.06;65.24;100546.92;128334;1095;24180;-78
2021/08/09 02:13:37;;;;;;;2.88;1.28;;;;;;;18.07;64.82;100550.42;128602;1095;24495;-78
2021/08/09 02:16:35;;;;;;;2.30;1.30;;;;;;;18.07;65.17;100561.92;128303;1095;22357;-78
2021/08/09 02:19:33;;;;;;;4.40;1.80;;;;;;;18.07;65.19;100564.59;128614;1094;22377;-78
2021/08/09 02:22:14;;;;;;;3.33;1.50;;;;;;;18.08;64.98;100560.88;128595;1095;24168;-78
2021/08/09 02:24:59;;;;;;;3.80;1.50;;;;;;;18.08;65.00;100568.09;128318;1095;22376;-78
2021/08/09 02:27:38;;;;;;;3.08;1.55;;;;;;;18.07;64.95;100572.63;128591;1095;22362;-79
2021/08/09 02:30:12;;;;;;;3.60;1.05;;;;;;;18.06;64.94;100578.16;128601;1093;22362;-78
2021/08/09 02:32:47;;;;;;;2.87;1.27;;;;;;;18.05;65.24;100584.55;128349;1095;22368;-78
2021/08/09 02:35:20;;;;;;;4.95;1.80;;;;;;;18.02;65.07;100583.11;128656;1094;22375;-79
2021/08/09 02:37:52;;;;;;;2.78;1.38;;;;;;;18.00;65.42;100600.41;128661;1095;22353;-78
2021/08/09 02:40:22;;;;;;;5.65;2.15;;;;;;;17.97;65.43;100592.81;128668;1095;22372;-78
2021/08/09 02:42:53;;;;;;;2.38;1.53;;;;;;;17.92;65.44;100604.11;128603;1095;22372;-78
2021/08/09 02:45:24;;;;;;;2.88;1.63;;;;;;;17.87;65.63;100612.77;128541;1095;22359;-78
2021/08/09 02:47:54;;;;;;;6.08;3.68;;;;;;;17.83;65.87;100608.88;128655;1095;22357;-79
2021/08/09 02:50:25;;;;;;;2.93;2.00;;;;;;;17.79;66.24;100610.34;128588;1095;24147;-78
2021/08/09 02:52:56;;;;;;;4.30;1.50;;;;;;;17.73;65.79;100612.99;128296;1095;22388;-78
2021/08/09 02:55:26;;;;;;;;;;;;;;;17.63;65.89;100618.76;128588;1095;22621;-79
2021/08/09 02:58:06;;;;;;;3.18;1.93;;;;;;;17.55;66.94;100616.28;128299;1095;21253;-79
2021/08/09 03:00:37;;;;;;;5.13;2.00;;;;;;;17.50;66.81;100614.25;128592;1095;22371;-78
2021/08/09 03:03:07;;;;;;;4.93;2.63;;;;;;;17.48;66.49;100620.81;128271;1095;22353;-78
2021/08/09 03:05:40;;;;;;;2.85;1.80;;;;;;;17.44;66.86;100608.91;128298;1095;22816;-79
2021/08/09 03:08:13;;;;;;;5.58;1.70;;;;;;;17.39;66.64;100606.84;128326;1095;25017;-79
2021/08/09 03:10:44;;;;;;;2.88;1.73;;;;;;;17.34;67.12;100615.48;128621;1095;22380;-78
2021/08/09 03:13:14;;;;;;;2.60;1.50;;;;;;;17.31;67.08;100631.09;128445;1095;22343;-78
2021/08/09 03:15:44;;;;;;;4.03;1.90;;;;;;;17.27;67.37;100627.19;128290;1095;23263;-77
2021/08/09 03:18:17;;;;;;;4.13;1.55;;;;;;;17.23;67.55;100629.45;128589;1095;22385;-79
2021/08/09 03:20:48;;;;;;;3.48;1.70;;;;;;;17.18;67.66;100637.23;128292;1095;22340;-78
2021/08/09 03:23:17;;;;;;;3.95;1.85;;;;;;;17.14;67.45;100631.48;128578;1095;24188;-78
2021/08/09 03:25:47;;;;;;;2.90;1.53;;;;;;;17.13;67.93;100639.71;128580;1095;22312;-79
2021/08/09 03:28:17;;;;;;;3.70;1.83;;;;;;;17.09;67.85;100647.31;128285;1095;22350;-78
2021/08/09 03:30:47;;;;;;;3.48;2.28;;;;;;;17.07;68.08;100649.34;128285;1095;22795;-79
2021/08/09 03:33:17;;;;;;;4.28;1.95;;;;;;;17.04;68.04;100651.60;128311;1095;22365;-79
2021/08/09 03:35:47;;;;;;;6.40;1.60;;;;;;;16.99;68.23;100654.86;128326;1095;22367;-78
2021/08/09 03:38:17;;;;;;;3.35;2.00;;;;;;;16.98;68.21;100653.22;128337;1095;22346;-78
2021/08/09 03:40:47;;;;;;;2.15;1.63;;;;;;;16.95;68.22;100666.97;128355;1095;23128;-79
2021/08/09 03:43:16;;;;;;;6.23;1.80;;;;;;;16.92;68.53;100665.52;128503;1095;24167;-79
2021/08/09 03:45:46;;;;;;;2.78;2.30;;;;;;;16.90;68.44;100666.77;128594;1093;22348;-79
2021/08/09 03:48:16;;;;;;;3.45;1.70;;;;;;;16.87;68.58;100667.17;128277;1095;22336;-78
2021/08/09 03:50:46;;;;;;;7.20;2.33;;;;;;;16.84;68.51;100679.05;128626;1095;22353;-78
2021/08/09 03:53:15;;;;;;;5.95;2.08;;;;;;;16.85;68.56;100680.69;128329;1095;24467;-78
2021/08/09 03:55:45;;;;;;;7.15;2.15;;;;;;;16.87;68.79;100689.33;128333;1095;25101;-78
2021/08/09 03:58:15;;;;;;;4.48;2.08;;;;;;;16.87;69.02;100692.00;128313;1095;22366;-77
2021/08/09 04:00:45;;;;;;;3.08;1.85;;;;;;;16.89;69.05;100689.97;128320;1095;22335;-78
2021/08/09 04:03:14;;;;;;;5.37;2.70;;;;;;;16.91;68.97;100695.09;128284;1095;22344;-77
2021/08/09 04:05:44;;;;;;;5.50;1.90;;;;;;;16.92;69.12;100707.39;128613;1095;23305;-77
2021/08/09 04:08:14;;;;;;;5.13;1.93;;;;;;;16.93;68.81;100701.88;128286;1095;24469;-78
2021/08/09 04:10:48;;;;;;;6.60;2.13;;;;;;;16.94;68.93;100705.36;128323;1094;23129;-79
2021/08/09 04:13:19;;;;;;;3.15;2.30;;;;;;;16.98;68.81;100700.44;128257;1095;23383;-78
2021/08/09 04:15:49;;;;;;;3.45;2.55;;;;;;;17.01;68.79;100710.72;128627;1095;22347;-79
2021/08/09 04:18:19;;;;;;;4.43;1.87;;;;;;;17.04;68.58;100713.80;128581;1095;24511;-78
2021/08/09 04:20:50;;;;;;;5.93;1.83;;;;;;;17.07;68.90;100709.92;128548;1095;22507;-78
2021/08/09 04:23:20;;;;;;;6.15;2.28;;;;;;;17.12;68.98;100720.80;128277;1095;22420;-78
2021/08/09 04:25:49;;;;;;;3.95;2.53;;;;;;;17.17;68.64;100721.03;128249;1095;22359;-78
2021/08/09 04:28:19;;;;;;;4.20;2.30;;;;;;;17.19;68.30;100721.63;128310;1095;22361;-78
2021/08/09 04:30:49;;;;;;;3.53;2.28;;;;;;;17.21;68.18;100724.93;128286;1095;22348;-77
2021/08/09 04:33:19;;;;;;;4.18;2.20;;;;;;;17.24;68.29;100729.05;128314;1095;24489;-78
2021/08/09 04:36:00;;;;;;;3.45;2.30;;;;;;;17.26;67.90;100729.66;128611;1095;22362;-77
2021/08/09 04:38:30;;;;;;;3.60;2.63;;;;;;;17.25;68.12;100736.84;128373;1095;22346;-77
2021/08/09 04:41:03;;;;;;;3.65;2.18;;;;;;;17.27;67.98;100737.48;128631;1095;22799;-78
2021/08/09 04:43:38;;;;;;;3.95;1.70;;;;;;;17.29;67.62;100739.94;128637;1094;23302;-78
2021/08/09 04:46:09;;;;;;;4.33;1.90;;;;;;;17.30;67.58;100741.59;128598;1094;24230;-78
2021/08/09 04:48:40;;;;;;;2.78;1.68;;;;;;;17.30;67.46;100745.09;128621;1095;24486;-78
2021/08/09 04:51:10;;;;;;;4.90;1.90;;;;;;;17.31;67.68;100748.58;128606;1095;22366;-79
2021/08/09 04:53:44;;;;;;;3.95;1.78;;;;;;;17.33;67.44;100752.70;128601;1095;24236;-78
2021/08/09 04:56:14;;;;;;;2.98;2.38;;;;;;;17.38;67.40;100755.56;128652;1095;24167;-78
2021/08/09 04:58:44;;;;;;;3.03;1.75;;;;;;;17.47;67.18;100752.72;128386;1095;22343;-79
2021/08/09 05:01:13;;;;;;;4.13;2.50;;;;;;;17.53;67.29;100754.58;128297;1095;22350;-79
2021/08/09 05:03:45;;;;;;;12.15;2.60;;;;;;;17.60;66.85;100753.55;128270;1095;24082;-78
2021/08/09 05:06:22;;;;;;;5.35;2.20;;;;;;;17.66;66.65;100754.59;128477;1095;22355;-78
2021/08/09 05:08:52;;;;;;;4.97;2.50;;;;;;;17.75;66.76;100755.20;128296;1095;22364;-78
2021/08/09 05:11:24;;;;;;;;;;;;;;;17.81;66.71;100760.58;128663;1093;22348;-77
2021/08/09 05:13:59;;;;;;;2.95;2.20;;;;;;;17.90;66.38;100763.06;128623;1095;21275;-80
2021/08/09 05:16:34;;;;;;;4.03;1.87;;;;;;;18.02;66.42;100756.86;128311;1095;22347;-80
2021/08/09 05:19:03;;;;;;;3.60;2.15;;;;;;;18.20;66.18;100764.27;128324;1095;24147;-78
2021/08/09 05:21:35;;;;;;;2.88;1.95;;;;;;;18.38;65.47;100763.61;128313;1095;22346;-77
2021/08/09 05:24:05;;;;;;;3.40;2.00;;;;;;;18.63;65.41;100769.13;128289;1095;22360;-77
2021/08/09 05:26:35;;;;;;;5.50;2.40;;;;;;;18.88;64.84;100771.93;128303;1095;22344;-78
2021/08/09 05:29:05;;;;;;;7.33;2.20;;;;;;;19.16;64.13;100768.09;128653;1095;22443;-78
2021/08/09 05:31:35;;;;;;;5.68;2.70;;;;;;;19.44;63.27;100770.42;128268;1095;22355;-77
2021/08/09 05:34:05;;;;;;;8.50;2.33;;;;;;;19.75;62.41;100765.05;128317;1094;22348;-78
2021/08/09 05:36:36;;;;;;;5.33;2.15;;;;;;;20.00;60.79;100766.94;128596;1095;22343;-77
2021/08/09 05:39:10;;;;;;;3.40;1.50;;;;;;;20.21;60.06;100766.52;128626;1095;22347;-76
2021/08/09 05:41:40;;;;;;;3.83;1.83;;;;;;;20.48;59.44;100766.25;128579;1095;22345;-78
2021/08/09 05:44:10;;;;;;;3.20;1.68;;;;;;;20.79;58.76;100769.86;128616;1095;22348;-78
2021/08/09 05:46:43;;;;;;;3.15;1.78;;;;;;;21.10;58.06;100758.94;128196;1098;24592;-79
2021/08/09 05:49:13;;;;;;;2.83;1.43;;;;;;;21.50;56.77;100771.02;128232;1098;22362;-79
2021/08/09 05:51:43;;;;;;;3.45;1.45;;;;;;;21.81;54.92;100764.53;128226;1095;22356;-79
2021/08/09 05:54:12;;;;;;;5.23;1.75;;;;;;;22.00;54.02;100774.14;128200;1095;22366;-79
2021/08/09 05:56:42;;;;;;;5.25;1.40;;;;;;;22.26;53.27;100782.84;128190;1095;22411;-79
2021/08/09 05:59:13;;;;;;;5.00;1.33;;;;;;;22.51;52.16;100779.88;128182;1095;22377;-78
2021/08/09 06:01:44;;;;;;;3.40;1.55;;;;;;;22.70;51.81;100781.38;128182;1095;22371;-78
2021/08/09 06:04:14;;;;;;;2.80;1.27;;;;;;;22.96;51.29;100782.75;128214;1095;22382;-79
2021/08/09 06:06:44;;;;;;;2.30;1.18;;;;;;;23.26;50.27;100787.09;128321;1095;23259;-77
2021/08/09 06:09:19;;;;;;;3.78;1.73;;;;;;;23.61;49.46;100780.69;128346;1095;22363;-77
2021/08/09 06:11:50;;;;;;;3.33;1.68;;;;;;;23.84;48.67;100782.45;128272;1095;24192;-78
2021/08/09 06:14:20;;;;;;;3.78;1.35;;;;;;;24.11;47.70;100786.12;128286;1095;22367;-77
2021/08/09 06:17:04;;;;;;;8.85;1.55;;;;;;;24.25;46.52;100788.47;128655;1095;22347;-84
2021/08/09 06:19:35;;;;;;;3.23;1.33;;;;;;;24.39;46.44;100787.05;128428;1095;22373;-86
2021/08/09 06:22:06;;;;;;;2.43;1.20;;;;;;;24.58;46.04;100780.33;128124;1098;22359;-83
2021/08/09 06:24:37;;;;;;;2.03;1.20;;;;;;;24.77;45.17;100785.44;128046;1098;22345;-83
2021/08/09 06:27:08;;;;;;;4.88;1.50;;;;;;;24.93;44.19;100789.95;128104;1098;22383;-82
2021/08/09 06:29:38;;;;;;;3.05;1.20;;;;;;;25.09;44.42;100790.92;128159;1098;23256;-81
2021/08/09 06:32:09;;;;;;;3.28;1.68;;;;;;;25.35;43.50;100790.16;127755;1101;22379;-83
2021/08/09 06:34:39;;;;;;;3.25;1.30;;;;;;;25.59;42.91;100796.09;127570;1101;24512;-81
2021/08/09 06:37:10;;;;;;;4.03;1.43;;;;;;;25.76;41.98;100789.73;128005;1101;22423;-81
2021/08/09 06:39:42;;;;;;;3.05;1.15;;;;;;;25.99;41.52;100796.69;128019;1098;22409;-83
2021/08/09 06:42:13;;;;;;;2.80;1.35;;;;;;;26.16;41.00;100791.95;128137;1098;22356;-86
2021/08/09 06:44:46;;;;;;;2.98;1.18;;;;;;;26.21;40.20;100800.09;128292;1098;22737;-81
2021/08/09 06:47:17;;;;;;;3.25;1.10;;;;;;;26.23;39.65;100800.67;128098;1098;22352;-81
2021/08/09 06:49:48;;;;;;;3.00;1.13;;;;;;;26.30;39.42;100803.14;128228;1095;26192;-81
2021/08/09 06:52:20;;;;;;;4.13;1.00;;;;;;;26.52;39.04;100805.72;128248;1098;22353;-81
2021/08/09 06:54:50;;;;;;;5.75;1.63;;;;;;;26.67;38.53;100803.10;128185;1098;22348;-82
2021/08/09 06:57:21;;;;;;;;;;;;;;;26.89;38.50;100802.09;128042;1098;25221;-81
2021/08/09 06:59:51;;;;;;;2.70;0.88;;;;;;;27.11;37.83;100801.91;128013;1098;21414;-82
2021/08/09 07:02:24;;;;;;;3.03;1.03;;;;;;;27.22;37.46;100806.30;127930;1098;22408;-81
2021/08/09 07:04:59;;;;;;;4.88;0.88;;;;;;;27.37;36.90;100806.34;127989;1098;22386;-82
2021/08/09 07:07:33;;;;;;;2.53;1.13;;;;;;;27.53;36.57;100811.80;128584;1098;22334;-83
2021/08/09 07:10:05;;;;;;;3.78;1.20;;;;;;;27.55;36.31;100815.86;128363;1095;22418;-83
2021/08/09 07:12:38;;;;;;;2.70;0.93;;;;;;;27.42;35.66;100811.79;128490;1095;22382;-83
2021/08/09 07:15:09;;;;;;;2.90;1.00;;;;;;;27.48;35.71;100817.20;128324;1098;22372;-83
2021/08/09 07:17:41;;;;;;;4.98;1.40;;;;;;;27.64;35.41;100821.58;128026;1098;22376;-83
2021/08/09 07:20:16;;;;;;;5.20;1.30;;;;;;;27.72;35.01;100817.50;128737;1098;24180;-83
2021/08/09 07:22:48;;;;;;;3.13;1.10;;;;;;;27.72;34.92;100812.88;128897;1098;22362;-83
2021/08/09 07:25:20;;;;;;;17.08;15.23;;;;;;;27.96;34.98;100813.20;128519;1098;22356;-83
2021/08/09 07:27:50;;;;;;;4.17;1.97;;;;;;;28.09;34.42;100823.52;128324;1098;22427;-83
2021/08/09 07:30:22;;;;;;;3.35;1.60;;;;;;;28.17;33.83;100813.18;128561;1098;22363;-84
2021/08/09 07:32:59;;;;;;;5.30;1.28;;;;;;;28.24;33.61;100817.23;128566;1098;22361;-82
2021/08/09 07:35:29;;;;;;;2.63;1.20;;;;;;;28.44;33.65;100824.56;128397;1095;23077;-83
2021/08/09 07:37:59;;;;;;;5.83;2.00;;;;;;;28.54;33.21;100821.81;128580;1095;22349;-82
2021/08/09 07:40:29;;;;;;;3.87;1.13;;;;;;;28.43;33.41;100814.79;128526;1095;22368;-82
2021/08/09 07:43:04;;;;;;;5.05;1.20;;;;;;;28.60;32.84;100823.43;128745;1095;22628;-84
2021/08/09 07:45:34;;;;;;;2.53;1.28;;;;;;;28.70;32.35;100821.78;128577;1095;24494;-81
2021/08/09 07:48:05;;;;;;;3.83;1.50;;;;;;;28.70;32.38;100825.30;128319;1095;24311;-83
2021/08/09 07:50:42;;;;;;;5.48;1.25;;;;;;;28.49;32.53;100815.56;128584;1095;24618;-82
2021/08/09 07:53:13;;;;;;;6.00;1.60;;;;;;;28.41;32.55;100824.30;128434;1095;22362;-82
2021/08/09 07:55:44;;;;;;;4.90;1.35;;;;;;;28.33;32.19;100818.31;128250;1098;22342;-83
2021/08/09 07:58:14;;;;;;;3.58;1.10;;;;;;;28.21;32.04;100819.69;128450;1098;22355;-83
2021/08/09 08:00:44;;;;;;;3.08;1.45;;;;;;;28.37;32.31;100824.81;128247;1101;22369;-83
2021/08/09 08:03:15;;;;;;;6.33;1.88;;;;;;;28.47;32.29;100825.92;128237;1101;22380;-83
2021/08/09 08:05:47;;;;;;;3.95;1.28;;;;;;;28.43;31.71;100830.28;128225;1101;22374;-83
2021/08/09 08:08:17;;;;;;;3.77;1.40;;;;;;;28.37;31.99;100824.00;128250;1100;22373;-84
2021/08/09 08:10:48;;;;;;;2.85;1.30;;;;;;;28.49;31.96;100819.13;128235;1101;22898;-84
2021/08/09 08:13:18;;;;;;;3.70;1.20;;;;;;;28.60;32.18;100819.91;128271;1099;23155;-83
2021/08/09 08:15:48;;;;;;;6.10;1.90;;;;;;;28.67;31.68;100823.14;128272;1101;22385;-82
2021/08/09 08:18:18;;;;;;;2.95;1.05;;;;;;;28.70;31.66;100816.34;127974;1098;22396;-82
2021/08/09 08:20:48;;;;;;;7.83;1.47;;;;;;;28.68;31.81;100829.38;128134;1098;22374;-82
2021/08/09 08:23:24;;;;;;;3.20;1.30;;;;;;;28.65;31.57;100824.50;128524;1097;23991;-82
2021/08/09 08:25:54;;;;;;;2.45;0.83;;;;;;;28.64;30.90;100817.44;128208;1098;22890;-82
2021/08/09 08:28:24;;;;;;;1.68;0.80;;;;;;;28.51;31.16;100822.36;128201;1101;24518;-82
2021/08/09 08:30:54;;;;;;;4.88;1.65;;;;;;;28.66;30.62;100828.84;128251;1098;22407;-83
2021/08/09 08:33:24;;;;;;;3.25;1.00;;;;;;;28.65;30.51;100824.50;127988;1098;22211;-82
2021/08/09 08:35:55;;;;;;;4.27;0.90;;;;;;;28.65;30.27;100827.22;128520;1097;22347;-83
2021/08/09 08:38:26;;;;;;;3.95;1.25;;;;;;;28.68;30.21;100830.19;127739;1101;24611;-82
2021/08/09 08:41:00;;;;;;;5.78;1.13;;;;;;;28.77;30.36;100833.97;127955;1100;22383;-82
2021/08/09 08:43:31;;;;;;;5.45;1.43;;;;;;;29.08;30.26;100833.87;128227;1098;22701;-82
2021/08/09 08:46:07;;;;;;;4.10;1.00;;;;;;;29.13;29.53;100836.58;127704;1098;22398;-82
2021/08/09 08:48:39;;;;;;;3.33;1.20;;;;;;;29.24;30.29;100832.70;128151;1098;22427;-83
2021/08/09 08:51:24;;;;;;;3.30;0.90;;;;;;;29.54;30.38;100839.85;128286;1098;22370;-83
2021/08/09 08:53:56;;;;;;;3.80;1.10;;;;;;;29.69;28.81;100846.30;128287;1098;23623;-83
2021/08/09 08:56:26;;;;;;;4.27;0.90;;;;;;;29.82;28.57;100842.94;128393;1095;22346;-83
2021/08/09 08:58:58;;;;;;;5.03;1.00;;;;;;;29.83;28.10;100843.78;128568;1094;22351;-82
2021/08/09 09:01:37;;;;;;;4.97;1.13;;;;;;;29.97;27.80;100845.55;128306;1098;22369;-82
2021/08/09 09:04:25;;;;;;;4.33;1.15;;;;;;;30.02;27.60;100836.51;127900;1098;22362;-82
2021/08/09 09:07:01;;;;;;;6.45;1.00;;;;;;;29.87;27.42;100842.10;128218;1098;22378;-84
2021/08/09 09:09:39;;;;;;;3.63;0.80;;;;;;;29.84;27.16;100838.03;128234;1098;22363;-83
2021/08/09 09:12:18;;;;;;;5.38;0.98;;;;;;;29.86;27.08;100838.57;128231;1098;24202;-83
2021/08/09 09:15:04;;;;;;;2.00;0.70;;;;;;;29.87;26.57;100840.19;128272;1101;22388;-83
2021/08/09 09:17:40;;;;;;;2.83;0.90;;;;;;;29.83;27.01;100836.41;128249;1098;22398;-82
2021/08/09 09:20:26;;;;;;;1.78;0.80;;;;;;;29.82;26.97;100833.96;128388;1098;22356;-82
2021/08/09 09:23:22;;;;;;;3.35;0.90;;;;;;;29.63;27.05;100831.94;128479;1095;22363;-82
2021/08/09 09:25:53;;;;;;;2.95;0.83;;;;;;;29.58;26.96;100831.93;128880;1095;22351;-83
2021/08/09 09:28:34;;;;;;;3.20;1.43;;;;;;;29.53;27.24;100838.23;128606;1095;23215;-82
2021/08/09 09:31:12;;;;;;;4.03;0.80;;;;;;;29.54;27.24;100826.24;128662;1095;22347;-82
2021/08/09 09:33:48;;;;;;;3.33;0.80;;;;;;;29.68;26.75;100831.88;128798;1095;22358;-82
2021/08/09 09:36:21;;;;;;;8.90;2.93;;;;;;;29.78;27.00;100831.00;128588;1095;23004;-82
2021/08/09 09:38:54;;;;;;;2.95;0.95;;;;;;;30.05;26.23;100826.95;128372;1095;22365;-82
2021/08/09 09:41:24;;;;;;;2.28;0.70;;;;;;;30.25;26.06;100834.97;128376;1095;22346;-82
2021/08/09 09:43:54;;;;;;;3.90;1.23;;;;;;;30.30;25.65;100834.12;128604;1095;22361;-82
2021/08/09 09:46:29;;;;;;;1.45;0.80;;;;;;;30.37;25.81;100842.77;128572;1095;22351;-82
2021/08/09 09:49:05;;;;;;;1.25;0.65;;;;;;;30.48;25.46;100842.34;128344;1098;22383;-83
2021/08/09 09:51:45;;;;;;;3.28;0.60;;;;;;;30.52;24.89;100841.77;128306;1098;24490;-82
2021/08/09 09:54:15;;;;;;;1.58;0.63;;;;;;;30.36;24.79;100836.50;128550;1098;22375;-82
2021/08/09 09:56:47;;;;;;;1.90;0.90;;;;;;;30.45;24.94;100842.92;128327;1098;24253;-83
2021/08/09 09:59:17;;;;;;;3.20;0.80;;;;;;;30.57;25.00;100822.65;127899;1101;22382;-82
2021/08/09 10:01:50;;;;;;;4.18;0.98;;;;;;;30.56;24.96;100835.47;128261;1098;22377;-81
2021/08/09 10:04:20;;;;;;;2.18;0.70;;;;;;;30.67;25.75;100833.44;128339;1098;22377;-82
2021/08/09 10:06:50;;;;;;;4.80;1.55;;;;;;;30.65;24.93;100838.36;128073;1101;22382;-83
2021/08/09 10:09:21;;;;;;;3.10;0.80;;;;;;;30.43;24.89;100842.42;127978;1101;22928;-84
2021/08/09 10:11:50;;;;;;;;;;;;;;;30.40;25.35;100842.19;128117;1098;22394;-83
2021/08/09 10:14:20;;;;;;;2.83;0.68;;;;;;;30.46;25.55;100836.39;128350;1098;21273;-82
2021/08/09 10:16:50;;;;;;;3.73;0.70;;;;;;;30.35;25.08;100844.95;128002;1101;22414;-83
2021/08/09 10:19:21;;;;;;;2.80;1.10;;;;;;;30.25;25.71;100843.14;128194;1100;24284;-83
2021/08/09 10:21:52;;;;;;;1.93;0.80;;;;;;;30.25;25.44;100843.95;128267;1100;22362;-82
2021/08/09 10:24:41;;;;;;;2.58;0.80;;;;;;;30.27;25.65;100838.23;128298;1098;22443;-82
2021/08/09 10:27:11;;;;;;;2.85;0.80;;;;;;;30.35;25.81;100843.03;128088;1098;24983;-83
2021/08/09 10:30:21;;;;;;;2.45;0.70;;;;;;;30.26;25.67;100847.51;128592;1098;22342;-82
2021/08/09 10:32:56;;;;;;;1.78;0.85;;;;;;;30.06;25.58;100853.92;128243;1098;22363;-82
2021/08/09 10:35:43;;;;;;;2.90;0.65;;;;;;;29.77;25.84;100843.80;128293;1098;22359;-82
2021/08/09 10:38:19;;;;;;;2.05;1.10;;;;;;;29.54;26.18;100844.48;128493;1098;22393;-82
2021/08/09 10:41:29;;;;;;;3.38;0.63;;;;;;;29.53;26.42;100840.95;128358;1097;22372;-83
2021/08/09 10:44:28;;;;;;;4.08;1.25;;;;;;;29.45;26.56;100840.73;128237;1100;22354;-80
2021/08/09 10:46:58;;;;;;;3.03;1.58;;;;;;;29.37;26.84;100846.78;127551;1101;22393;-81
2021/08/09 10:50:00;;;;;;;1.47;0.67;;;;;;;29.36;26.82;100842.41;127562;1101;24508;-81
2021/08/09 10:52:34;;;;;;;2.80;0.93;;;;;;;29.10;27.16;100844.48;127210;1105;22460;-82
2021/08/09 10:55:31;;;;;;;2.30;0.80;;;;;;;28.95;27.12;100839.88;127479;1105;22385;-83
2021/08/09 10:58:05;;;;;;;1.75;0.80;;;;;;;28.81;26.98;100845.11;127129;1105;22394;-83
2021/08/09 11:00:41;;;;;;;2.58;1.03;;;;;;;28.60;27.17;100847.89;126983;1105;22385;-82
2021/08/09 11:03:20;;;;;;;1.58;0.55;;;;;;;28.40;27.39;100855.28;127229;1105;22466;-82
2021/08/09 11:05:50;;;;;;;3.77;1.13;;;;;;;28.18;28.27;100841.96;127429;1104;24515;-81
2021/08/09 11:08:23;;;;;;;2.30;0.90;;;;;;;28.02;28.18;100839.25;127710;1105;22480;-76
2021/08/09 11:11:06;;;;;;;4.95;0.90;;;;;;;27.76;28.59;100829.44;127429;1105;22517;-76
2021/08/09 11:13:42;;;;;;;2.73;1.23;;;;;;;27.56;28.97;100832.98;127535;1105;22385;-78
2021/08/09 11:16:30;;;;;;;3.23;1.17;;;;;;;27.42;28.73;100832.66;127453;1104;22369;-77
2021/08/09 11:19:00;;;;;;;2.90;1.60;;;;;;;27.13;29.21;100835.86;127552;1104;24679;-77
2021/08/09 11:21:30;;;;;;;2.20;1.20;;;;;;;27.00;29.57;100833.61;127960;1100;24872;-77
2021/08/09 11:23:59;;;;;;;3.98;1.73;;;;;;;26.88;29.56;100830.30;127763;1098;24190;-77
2021/08/09 11:26:34;;;;;;;3.15;1.15;;;;;;;26.82;30.49;100832.16;127985;1098;22358;-77
2021/08/09 11:29:08;;;;;;;2.33;0.80;;;;;;;26.75;30.35;100835.11;128285;1095;22337;-77
2021/08/09 11:31:48;;;;;;;3.18;1.08;;;;;;;26.61;30.69;100833.96;128314;1095;22340;-77
2021/08/09 11:34:18;;;;;;;2.45;1.00;;;;;;;26.50;30.66;100837.70;128628;1095;22354;-77
2021/08/09 11:37:22;;;;;;;3.88;0.93;;;;;;;26.37;30.40;100832.71;128594;1095;23110;-86
2021/08/09 11:39:51;;;;;;;3.95;1.40;;;;;;;26.17;30.64;100823.37;128314;1095;22397;-77
2021/08/09 11:42:21;;;;;;;4.73;0.85;;;;;;;26.08;31.25;100830.33;128576;1095;24996;-77
2021/08/09 11:44:52;;;;;;;2.40;0.78;;;;;;;26.09;30.89;100825.73;128574;1095;22334;-78
2021/08/09 11:47:22;;;;;;;2.03;0.90;;;;;;;26.12;31.06;100827.92;128381;1095;22301;-77
2021/08/09 11:49:55;;;;;;;2.50;1.10;;;;;;;26.12;31.19;100828.73;128757;1095;22343;-77